createdAt,value
2023-09-06T00:01:00.841Z,100870.28
2023-09-06T00:06:02.669Z,100862.97
2023-09-06T00:11:07.419Z,100859.41
2023-09-06T00:16:09.096Z,100847.47
2023-09-06T00:21:10.856Z,100838.13
2023-09-06T00:26:12.560Z,100840.69
2023-09-06T00:31:14.437Z,100849.00
2023-09-06T00:36:16.189Z,100843.06
2023-09-06T00:41:18.848Z,100835.91
2023-09-06T00:46:20.899Z,100838.47
2023-09-06T00:51:22.646Z,100843.22
2023-09-06T00:56:24.297Z,100841.84
2023-09-06T01:01:26.160Z,100848.13
2023-09-06T01:06:29.774Z,100838.44
2023-09-06T01:11:33.136Z,100857.97
2023-09-06T01:16:41.575Z,100858.09
2023-09-06T01:21:49.927Z,100853.66
2023-09-06T01:26:51.858Z,100857.34
2023-09-06T01:31:53.659Z,100858.50
2023-09-06T01:36:55.450Z,100862.91
2023-09-06T01:41:57.249Z,100860.34
2023-09-06T01:46:59.020Z,100861.84
2023-09-06T01:52:01.135Z,100864.06
2023-09-06T01:57:02.852Z,100863.84
2023-09-06T02:02:05.611Z,100867.19
2023-09-06T02:07:07.349Z,100864.47
2023-09-06T02:12:09.143Z,100860.91
2023-09-06T02:17:10.878Z,100858.69
2023-09-06T02:22:12.757Z,100850.19
2023-09-06T02:27:14.915Z,100858.28
2023-09-06T02:32:19.940Z,100870.84
2023-09-06T02:37:21.670Z,100856.91
2023-09-06T02:42:23.642Z,100868.56
2023-09-06T02:47:29.875Z,100869.56
2023-09-06T02:52:34.305Z,100866.00
2023-09-06T02:57:36.187Z,100870.06
2023-09-06T03:02:37.897Z,100873.09
2023-09-06T03:07:41.618Z,100870.44
2023-09-06T03:12:45.099Z,100875.97
2023-09-06T03:17:48.308Z,100879.66
2023-09-06T03:22:51.400Z,100882.81
2023-09-06T03:28:01.437Z,100881.81
2023-09-06T03:33:07.463Z,100871.22
2023-09-06T03:38:12.192Z,100881.66
2023-09-06T03:43:17.152Z,100877.50
2023-09-06T03:48:21.799Z,100884.69
2023-09-06T03:53:27.772Z,100886.53
2023-09-06T03:58:30.626Z,100893.59
2023-09-06T04:03:33.535Z,100888.38
2023-09-06T04:08:37.681Z,100891.25
2023-09-06T04:13:40.488Z,100900.84
2023-09-06T04:18:43.615Z,100899.13
2023-09-06T04:23:46.041Z,100894.34
2023-09-06T04:28:51.188Z,100899.53
2023-09-06T04:33:55.123Z,100897.50
2023-09-06T04:38:59.906Z,100895.66
2023-09-06T04:44:04.089Z,100903.94
2023-09-06T04:49:06.124Z,100915.00
2023-09-06T04:54:10.785Z,100910.84
2023-09-06T04:59:14.003Z,100916.94
2023-09-06T05:04:16.173Z,100921.06
2023-09-06T05:09:20.549Z,100920.28
2023-09-06T05:14:22.699Z,100924.97
2023-09-06T05:19:28.785Z,100923.88
2023-09-06T05:24:31.234Z,100914.38
2023-09-06T05:29:33.849Z,100924.81
2023-09-06T05:34:35.914Z,100928.53
2023-09-06T05:39:41.174Z,100931.25
2023-09-06T05:44:44.165Z,100936.53
2023-09-06T05:49:48.025Z,100936.84
2023-09-06T05:54:53.869Z,100948.03
2023-09-06T05:59:58.899Z,100938.78
2023-09-06T06:05:00.683Z,100952.09
2023-09-06T06:10:02.569Z,100942.91
2023-09-06T06:15:04.642Z,100949.75
2023-09-06T06:20:12.262Z,100954.97
2023-09-06T06:25:14.277Z,100952.09
2023-09-06T06:30:16.100Z,100955.28
2023-09-06T06:35:17.798Z,100955.41
2023-09-06T06:40:19.597Z,100956.25
2023-09-06T06:45:21.301Z,100953.94
2023-09-06T06:50:23.550Z,100953.53
2023-09-06T06:55:25.361Z,100960.56
2023-09-06T07:00:35.607Z,100961.72
2023-09-06T07:05:37.333Z,100959.84
2023-09-06T07:10:39.058Z,100956.09
2023-09-06T07:15:41.274Z,100957.19
2023-09-06T07:20:43.544Z,100963.44
2023-09-06T07:25:45.972Z,100960.16
2023-09-06T07:30:47.663Z,100968.84
2023-09-06T07:35:49.291Z,100962.81
2023-09-06T07:41:04.648Z,100967.13
2023-09-06T07:46:11.145Z,100963.81
2023-09-06T07:51:13.425Z,100968.25
2023-09-06T07:56:15.156Z,100972.78
2023-09-06T08:01:19.460Z,100966.88
2023-09-06T08:06:21.611Z,100971.69
2023-09-06T08:11:23.444Z,100962.59
2023-09-06T08:16:25.236Z,100962.31
2023-09-06T08:21:27.106Z,100964.06
2023-09-06T08:26:29.601Z,100964.16
2023-09-06T08:31:31.456Z,100965.69
2023-09-06T08:36:33.192Z,100965.03
2023-09-06T08:41:35.003Z,100962.31
2023-09-06T08:46:42.730Z,100961.91
2023-09-06T08:51:44.709Z,100968.03
2023-09-06T08:56:46.697Z,100966.53
2023-09-06T09:01:48.504Z,100956.97
2023-09-06T09:06:50.342Z,100958.81
2023-09-06T09:11:53.165Z,100963.00
2023-09-06T09:16:59.232Z,100964.50
2023-09-06T09:22:00.950Z,100959.34
2023-09-06T09:27:04.168Z,100952.19
2023-09-06T09:32:06.128Z,100954.22
2023-09-06T09:37:09.655Z,100956.06
2023-09-06T09:42:11.943Z,100957.66
2023-09-06T09:47:35.062Z,100955.16
2023-09-06T09:52:37.337Z,100949.44
2023-09-06T09:57:40.125Z,100951.00
2023-09-06T10:02:47.017Z,100948.72
2023-09-06T10:07:50.071Z,100942.78
2023-09-06T10:12:53.229Z,100937.06
2023-09-06T10:17:58.941Z,100932.94
2023-09-06T10:23:01.292Z,100941.28
2023-09-06T10:28:03.046Z,100931.22
2023-09-06T10:33:05.034Z,100930.59
2023-09-06T10:38:08.951Z,100924.00
2023-09-06T10:43:11.438Z,100930.19
2023-09-06T10:48:13.390Z,100921.66
2023-09-06T10:53:20.160Z,100914.81
2023-09-06T10:58:25.040Z,100920.19
2023-09-06T11:03:33.148Z,100916.03
2023-09-06T11:08:35.037Z,100910.09
2023-09-06T11:13:38.370Z,100911.31
2023-09-06T11:18:51.362Z,100907.44
2023-09-06T11:23:54.886Z,100907.94
2023-09-06T11:29:06.386Z,100902.44
2023-09-06T11:34:10.457Z,100906.06
2023-09-06T11:39:20.029Z,100893.66
2023-09-06T11:44:24.521Z,100894.03
2023-09-06T11:49:27.180Z,100888.38
2023-09-06T11:54:33.009Z,100885.38
2023-09-06T11:59:34.771Z,100877.31
2023-09-06T12:04:36.579Z,100883.69
2023-09-06T12:09:38.305Z,100884.91
2023-09-06T12:14:43.806Z,100883.44
2023-09-06T12:19:45.794Z,100879.72
2023-09-06T12:24:48.758Z,100885.75
2023-09-06T12:29:50.680Z,100877.78
2023-09-06T12:34:53.750Z,100876.31
2023-09-06T12:39:55.853Z,100873.06
2023-09-06T12:44:57.619Z,100867.53
2023-09-06T12:50:01.045Z,100867.53
2023-09-06T12:55:05.894Z,100863.69
2023-09-06T13:00:08.778Z,100857.66
2023-09-06T13:05:11.527Z,100851.75
2023-09-06T13:10:13.843Z,100859.47
2023-09-06T13:15:15.605Z,100852.09
2023-09-06T13:20:17.343Z,100847.16
2023-09-06T13:25:19.531Z,100847.16
2023-09-06T13:30:21.580Z,100839.84
2023-09-06T13:35:23.626Z,100849.84
2023-09-06T13:40:25.399Z,100846.31
2023-09-06T13:45:30.111Z,100848.09
2023-09-06T13:50:32.334Z,100841.63
2023-09-06T13:55:34.096Z,100837.06
2023-09-06T14:00:35.886Z,100834.78
2023-09-06T14:05:38.282Z,100832.47
2023-09-06T14:10:40.069Z,100831.63
2023-09-06T14:15:41.782Z,100819.63
2023-09-06T14:20:43.563Z,100817.09
2023-09-06T14:25:45.304Z,100818.38
2023-09-06T14:30:47.042Z,100814.84
2023-09-06T14:35:48.684Z,100812.47
2023-09-06T14:40:50.407Z,100808.75
2023-09-06T14:45:52.258Z,100814.88
2023-09-06T14:51:04.659Z,100809.59
2023-09-06T14:56:07.243Z,100800.69
2023-09-06T15:01:09.869Z,100798.53
2023-09-06T15:06:13.793Z,100797.81
2023-09-06T15:11:15.481Z,100805.91
2023-09-06T15:16:17.252Z,100807.09
2023-09-06T15:21:18.944Z,100808.78
2023-09-06T15:26:22.423Z,100802.75
2023-09-06T15:31:25.318Z,100796.72
2023-09-06T15:36:31.223Z,100799.53
2023-09-06T15:41:33.762Z,100800.97
2023-09-06T15:46:36.685Z,100804.09
2023-09-06T15:51:38.497Z,100801.91
2023-09-06T15:56:40.357Z,100807.75
2023-09-06T16:01:42.925Z,100808.59
2023-09-06T16:06:44.727Z,100811.47
2023-09-06T16:11:46.404Z,100815.34
2023-09-06T16:16:48.164Z,100818.34
2023-09-06T16:21:49.904Z,100814.38
2023-09-06T16:26:55.962Z,100817.53
2023-09-06T16:31:57.872Z,100816.94
2023-09-06T16:37:00.066Z,100812.72
2023-09-06T16:42:02.306Z,100815.56
2023-09-06T16:47:06.108Z,100813.84
2023-09-06T16:52:09.067Z,100805.97
2023-09-06T16:57:10.960Z,100812.06
2023-09-06T17:02:12.846Z,100816.72
2023-09-06T17:07:14.869Z,100814.28
2023-09-06T17:12:16.560Z,100803.81
2023-09-06T17:17:20.237Z,100814.69
2023-09-06T17:22:22.051Z,100808.78
2023-09-06T17:27:23.771Z,100809.59
2023-09-06T17:32:27.064Z,100815.78
2023-09-06T17:37:29.124Z,100807.47
2023-09-06T17:42:32.545Z,100813.72
2023-09-06T17:47:34.540Z,100812.84
2023-09-06T17:52:39.591Z,100812.97
2023-09-06T17:57:42.890Z,100819.94
2023-09-06T18:02:45.480Z,100829.41
2023-09-06T18:07:47.775Z,100826.97
2023-09-06T18:12:49.525Z,100842.19
2023-09-06T18:17:52.520Z,100846.56
2023-09-06T18:22:55.025Z,100844.44
2023-09-06T18:27:56.775Z,100839.47
2023-09-06T18:32:58.518Z,100858.78
2023-09-06T18:38:00.273Z,100856.47
2023-09-06T18:43:03.623Z,100849.50
2023-09-06T18:48:08.409Z,100854.44
2023-09-06T18:53:10.832Z,100854.50
2023-09-06T18:58:12.853Z,100860.09
2023-09-06T19:03:15.099Z,100862.91
2023-09-06T19:08:17.514Z,100869.25
2023-09-06T19:13:20.083Z,100870.13
2023-09-06T19:18:21.750Z,100865.03
2023-09-06T19:23:23.536Z,100865.19
2023-09-06T19:28:25.511Z,100860.28
2023-09-06T19:33:27.958Z,100860.63
2023-09-06T19:38:31.334Z,100859.78
2023-09-06T19:43:33.266Z,100862.94
2023-09-06T19:48:41.194Z,100873.69
2023-09-06T19:53:49.080Z,100874.34
2023-09-06T19:58:54.283Z,100873.06
2023-09-06T20:03:56.063Z,100872.66
2023-09-06T20:08:59.094Z,100874.72
2023-09-06T20:14:01.274Z,100880.13
2023-09-06T20:19:03.529Z,100887.22
2023-09-06T20:24:05.546Z,100883.13
2023-09-06T20:29:09.817Z,100880.50
2023-09-06T20:34:11.720Z,100878.72
2023-09-06T20:39:13.705Z,100885.13
2023-09-06T20:44:15.382Z,100888.78
2023-09-06T20:49:17.731Z,100889.06
2023-09-06T20:54:19.463Z,100890.59
2023-09-06T20:59:21.209Z,100901.41
2023-09-06T21:04:23.010Z,100903.84
2023-09-06T21:09:25.074Z,100909.81
2023-09-06T21:14:26.742Z,100910.78
2023-09-06T21:19:30.127Z,100906.94
2023-09-06T21:24:32.290Z,100906.63
2023-09-06T21:29:33.968Z,100910.97
2023-09-06T21:34:35.702Z,100907.59
2023-09-06T21:39:37.444Z,100914.63
2023-09-06T21:44:39.594Z,100920.13
2023-09-06T21:49:41.370Z,100916.38
2023-09-06T21:54:43.137Z,100910.88
2023-09-06T21:59:44.983Z,100916.63
2023-09-06T22:04:46.723Z,100916.63
2023-09-06T22:10:07.816Z,100915.19
2023-09-06T22:15:28.532Z,100918.66
2023-09-06T22:20:32.913Z,100919.00
2023-09-06T22:25:35.400Z,100926.75
2023-09-06T22:30:43.706Z,100924.84
2023-09-06T22:35:45.625Z,100926.06
2023-09-06T22:40:47.408Z,100921.34
2023-09-06T22:45:51.286Z,100925.41
2023-09-06T22:50:53.095Z,100933.66
2023-09-06T22:55:54.903Z,100938.16
2023-09-06T23:01:04.712Z,100938.41
2023-09-06T23:06:11.451Z,100934.69
2023-09-06T23:11:16.760Z,100937.84
2023-09-06T23:16:18.528Z,100937.88
2023-09-06T23:21:23.224Z,100932.47
2023-09-06T23:26:32.463Z,100933.69
2023-09-06T23:31:38.233Z,100936.41
2023-09-06T23:36:40.188Z,100945.78
2023-09-06T23:41:42.865Z,100943.94
2023-09-06T23:46:44.772Z,100940.06
2023-09-06T23:51:46.639Z,100945.25
2023-09-06T23:56:48.402Z,100941.34
